createdAt,value
2023-05-09T00:02:50.888Z,67.51
2023-05-09T00:06:16.156Z,67.92
2023-05-09T00:09:41.931Z,67.17
2023-05-09T00:13:10.036Z,67.03
2023-05-09T00:16:35.107Z,69.05
2023-05-09T00:20:02.402Z,68.78
2023-05-09T00:23:27.576Z,68.70
2023-05-09T00:26:52.825Z,68.47
2023-05-09T00:30:29.478Z,68.51
2023-05-09T00:33:56.548Z,68.94
2023-05-09T00:37:22.109Z,68.46
2023-05-09T00:40:48.032Z,68.26
2023-05-09T00:44:13.134Z,68.88
2023-05-09T00:47:40.619Z,68.31
2023-05-09T00:51:06.632Z,69.13
2023-05-09T00:54:32.026Z,68.31
2023-05-09T00:57:58.350Z,68.88
2023-05-09T01:01:24.522Z,70.02
2023-05-09T01:04:51.181Z,70.02
2023-05-09T01:08:23.237Z,69.65
2023-05-09T01:11:51.582Z,70.96
2023-05-09T01:15:20.109Z,71.31
2023-05-09T01:18:48.583Z,71.48
2023-05-09T01:22:17.283Z,71.43
2023-05-09T01:25:48.244Z,71.51
2023-05-09T01:29:39.023Z,71.66
2023-05-09T01:33:04.196Z,69.86
2023-05-09T01:36:31.730Z,69.87
2023-05-09T01:39:58.579Z,69.76
2023-05-09T01:43:25.357Z,71.94
2023-05-09T01:46:52.386Z,71.96
2023-05-09T01:50:19.592Z,70.97
2023-05-09T01:53:47.256Z,72.29
2023-05-09T01:57:12.930Z,73.16
2023-05-09T02:00:38.476Z,74.48
2023-05-09T02:04:06.625Z,73.51
2023-05-09T02:07:32.965Z,72.47
2023-05-09T02:10:58.481Z,70.90
2023-05-09T02:14:23.520Z,72.29
2023-05-09T02:17:49.692Z,74.31
2023-05-09T02:21:17.673Z,75.15
2023-05-09T02:24:43.258Z,74.83
2023-05-09T02:28:08.738Z,73.89
2023-05-09T02:31:34.161Z,73.49
2023-05-09T02:35:00.029Z,73.23
2023-05-09T02:38:25.856Z,73.30
2023-05-09T02:41:51.702Z,74.51
2023-05-09T02:45:17.827Z,74.18
2023-05-09T02:48:45.264Z,72.59
2023-05-09T02:52:10.467Z,72.93
2023-05-09T02:55:37.401Z,73.50
2023-05-09T02:59:03.966Z,73.94
2023-05-09T03:02:29.163Z,74.31
2023-05-09T03:05:55.541Z,73.57
2023-05-09T03:09:21.692Z,72.49
2023-05-09T03:12:48.485Z,74.08
2023-05-09T03:16:16.575Z,74.64
2023-05-09T03:19:42.870Z,74.83
2023-05-09T03:23:08.636Z,75.15
2023-05-09T03:26:36.266Z,74.45
2023-05-09T03:30:04.158Z,74.87
2023-05-09T03:33:29.307Z,75.50
2023-05-09T03:36:55.007Z,75.97
2023-05-09T03:40:22.242Z,76.45
2023-05-09T03:43:48.193Z,76.78
2023-05-09T03:47:15.013Z,76.21
2023-05-09T03:50:40.267Z,75.81
2023-05-09T03:54:07.869Z,75.55
2023-05-09T03:57:34.960Z,75.51
2023-05-09T04:00:59.515Z,75.46
2023-05-09T04:04:27.133Z,74.71
2023-05-09T04:07:52.625Z,74.58
2023-05-09T04:11:18.456Z,74.38
2023-05-09T04:14:48.201Z,73.73
2023-05-09T04:18:15.495Z,73.89
2023-05-09T04:21:42.629Z,73.59
2023-05-09T04:25:13.391Z,72.91
2023-05-09T04:28:39.350Z,72.76
2023-05-09T04:32:06.418Z,71.60
2023-05-09T04:35:32.862Z,70.67
2023-05-09T04:39:00.949Z,70.59
2023-05-09T04:42:26.712Z,69.65
2023-05-09T04:45:53.094Z,69.98
2023-05-09T04:49:18.803Z,69.25
2023-05-09T04:52:46.084Z,68.90
2023-05-09T04:56:15.410Z,68.63
2023-05-09T04:59:41.895Z,68.47
2023-05-09T05:03:08.254Z,67.95
2023-05-09T05:06:51.750Z,67.43
2023-05-09T05:10:17.845Z,65.68
2023-05-09T05:13:45.903Z,65.92
2023-05-09T05:17:11.631Z,65.29
2023-05-09T05:20:37.432Z,64.59
2023-05-09T05:24:03.086Z,64.09
2023-05-09T05:27:29.028Z,63.70
2023-05-09T05:30:57.402Z,63.04
2023-05-09T05:34:23.995Z,63.54
2023-05-09T05:37:49.095Z,62.97
2023-05-09T05:41:16.065Z,62.61
2023-05-09T05:44:41.413Z,61.45
2023-05-09T05:48:08.060Z,61.71
2023-05-09T05:51:32.054Z,60.77
2023-05-09T05:54:56.857Z,60.81
2023-05-09T05:58:21.448Z,60.61
2023-05-09T06:01:45.996Z,59.72
2023-05-09T06:05:13.849Z,59.54
2023-05-09T06:08:37.869Z,59.29
2023-05-09T06:12:02.605Z,58.27
2023-05-09T06:15:28.731Z,58.45
2023-05-09T06:18:56.057Z,58.15
2023-05-09T06:22:23.719Z,58.20
2023-05-09T06:25:51.134Z,58.17
2023-05-09T06:29:16.559Z,57.82
2023-05-09T06:32:41.776Z,56.96
2023-05-09T06:36:07.360Z,56.96
2023-05-09T06:39:35.624Z,56.81
2023-05-09T06:43:01.158Z,56.22
2023-05-09T06:46:28.192Z,55.96
2023-05-09T06:49:56.691Z,55.73
2023-05-09T06:53:22.627Z,54.53
2023-05-09T06:56:48.185Z,55.29
2023-05-09T07:00:13.159Z,53.92
2023-05-09T07:03:36.388Z,53.17
2023-05-09T07:07:00.711Z,52.93
2023-05-09T07:10:23.664Z,52.84
2023-05-09T07:13:50.125Z,52.65
2023-05-09T07:17:23.642Z,52.10
2023-05-09T07:20:50.899Z,52.40
2023-05-09T07:24:15.978Z,51.88
2023-05-09T07:27:42.490Z,50.92
2023-05-09T07:31:10.126Z,51.37
2023-05-09T07:34:36.091Z,51.68
2023-05-09T07:38:01.249Z,50.17
2023-05-09T07:41:27.909Z,50.48
2023-05-09T07:45:01.474Z,50.13
2023-05-09T07:48:29.279Z,49.73
2023-05-09T07:51:53.973Z,48.68
2023-05-09T07:55:19.954Z,49.04
2023-05-09T07:58:45.197Z,48.11
2023-05-09T08:02:11.138Z,47.85
2023-05-09T08:05:38.400Z,47.21
2023-05-09T08:09:05.414Z,46.98
2023-05-09T08:12:31.690Z,47.47
2023-05-09T08:15:56.755Z,46.62
2023-05-09T08:19:25.857Z,46.81
2023-05-09T08:22:53.038Z,46.26
2023-05-09T08:26:18.940Z,45.48
2023-05-09T08:29:43.785Z,44.55
2023-05-09T08:33:09.539Z,44.70
2023-05-09T08:36:34.731Z,43.49
2023-05-09T08:40:02.911Z,43.90
2023-05-09T08:43:28.692Z,43.94
2023-05-09T08:46:55.509Z,42.75
2023-05-09T08:50:21.435Z,43.84
2023-05-09T08:53:50.435Z,42.28
2023-05-09T08:57:16.146Z,42.20
2023-05-09T09:00:40.667Z,41.16
2023-05-09T09:04:05.113Z,40.89
2023-05-09T09:07:40.491Z,40.31
2023-05-09T09:11:06.907Z,40.69
2023-05-09T09:14:34.777Z,37.00
2023-05-09T09:18:01.220Z,38.62
2023-05-09T09:21:29.087Z,38.03
2023-05-09T09:24:53.608Z,37.37
2023-05-09T09:28:19.515Z,38.02
2023-05-09T09:31:48.419Z,39.62
2023-05-09T09:35:13.797Z,37.51
2023-05-09T09:38:42.117Z,36.25
2023-05-09T09:42:13.160Z,37.60
2023-05-09T09:45:38.913Z,37.99
2023-05-09T09:49:04.906Z,35.75
2023-05-09T09:52:29.335Z,34.97
2023-05-09T09:55:54.603Z,36.90
2023-05-09T09:59:19.255Z,36.15
2023-05-09T10:02:50.864Z,35.87
2023-05-09T10:06:17.755Z,34.84
2023-05-09T10:09:42.060Z,35.19
2023-05-09T10:13:08.009Z,37.25
2023-05-09T10:16:43.849Z,36.42
2023-05-09T10:20:10.520Z,37.83
2023-05-09T10:23:40.027Z,35.88
2023-05-09T10:27:07.468Z,36.81
2023-05-09T10:30:34.255Z,34.87
2023-05-09T10:33:59.125Z,34.44
2023-05-09T10:37:22.958Z,34.65
2023-05-09T10:40:50.545Z,34.95
2023-05-09T10:44:14.622Z,35.11
2023-05-09T10:47:39.006Z,34.84
2023-05-09T10:51:09.278Z,33.14
2023-05-09T10:54:34.363Z,32.97
2023-05-09T10:58:00.073Z,33.68
2023-05-09T11:01:33.332Z,34.13
2023-05-09T11:05:19.553Z,31.52
2023-05-09T11:08:44.368Z,31.88
2023-05-09T11:12:20.747Z,32.55
2023-05-09T11:16:09.087Z,33.06
2023-05-09T11:19:37.888Z,33.18
2023-05-09T11:23:02.622Z,31.70
2023-05-09T11:26:27.458Z,34.29
2023-05-09T11:29:53.644Z,35.41
2023-05-09T11:33:30.515Z,34.37
2023-05-09T11:36:55.709Z,35.42
2023-05-09T11:40:20.639Z,37.80
2023-05-09T11:43:46.283Z,38.31
2023-05-09T11:47:10.570Z,38.20
2023-05-09T11:50:36.519Z,37.30
2023-05-09T11:53:59.991Z,37.98
2023-05-09T11:57:23.926Z,38.03
2023-05-09T12:00:48.241Z,38.33
2023-05-09T12:04:12.668Z,39.92
2023-05-09T12:07:38.614Z,38.30
2023-05-09T12:11:10.698Z,36.73
2023-05-09T12:14:35.765Z,35.99
2023-05-09T12:18:05.003Z,37.18
2023-05-09T12:21:30.123Z,35.61
2023-05-09T12:24:56.639Z,34.09
2023-05-09T12:28:20.952Z,34.37
2023-05-09T12:31:45.441Z,36.17
2023-05-09T12:35:11.300Z,35.71
2023-05-09T12:38:36.187Z,38.41
2023-05-09T12:42:02.327Z,36.44
2023-05-09T12:45:27.525Z,33.84
2023-05-09T12:48:52.072Z,32.04
2023-05-09T12:52:20.098Z,31.82
2023-05-09T12:55:44.567Z,33.46
2023-05-09T12:59:10.190Z,34.71
2023-05-09T13:02:37.122Z,36.26
2023-05-09T13:06:02.451Z,39.06
2023-05-09T13:09:27.792Z,39.07
2023-05-09T13:12:52.946Z,35.63
2023-05-09T13:16:18.708Z,34.90
2023-05-09T13:19:43.779Z,35.66
2023-05-09T13:23:07.745Z,36.05
2023-05-09T13:26:33.338Z,35.42
2023-05-09T13:29:59.227Z,36.75
2023-05-09T13:33:26.799Z,34.13
2023-05-09T13:36:52.098Z,32.95
2023-05-09T13:40:17.605Z,31.65
2023-05-09T13:43:43.153Z,35.68
2023-05-09T13:47:08.221Z,35.89
2023-05-09T13:50:34.426Z,38.71
2023-05-09T13:53:59.192Z,39.28
2023-05-09T13:57:23.673Z,39.40
2023-05-09T14:00:48.648Z,39.82
2023-05-09T14:04:14.138Z,39.96
2023-05-09T14:07:39.704Z,39.45
2023-05-09T14:11:04.461Z,38.02
2023-05-09T14:14:29.345Z,37.91
2023-05-09T14:17:55.666Z,38.43
2023-05-09T14:21:19.850Z,38.64
2023-05-09T14:24:47.324Z,37.91
2023-05-09T14:28:10.490Z,35.82
2023-05-09T14:31:34.167Z,33.81
2023-05-09T14:34:57.441Z,34.17
2023-05-09T14:38:21.520Z,34.89
2023-05-09T14:41:49.070Z,33.95
2023-05-09T14:45:15.861Z,37.15
2023-05-09T14:48:40.197Z,37.32
2023-05-09T14:52:04.807Z,37.77
2023-05-09T14:55:28.874Z,39.70
2023-05-09T14:58:54.655Z,41.01
2023-05-09T15:02:18.070Z,40.35
2023-05-09T15:05:41.868Z,40.90
2023-05-09T15:09:04.905Z,39.43
2023-05-09T15:12:27.982Z,37.78
2023-05-09T15:15:52.373Z,36.36
2023-05-09T15:23:09.841Z,35.26
2023-05-09T15:26:36.281Z,33.90
2023-05-09T15:30:02.565Z,37.11
2023-05-09T15:33:29.810Z,34.15
2023-05-09T15:36:54.825Z,35.83
2023-05-09T15:40:19.550Z,34.94
2023-05-09T15:43:43.047Z,35.35
2023-05-09T15:47:06.655Z,35.66
2023-05-09T15:50:31.932Z,33.87
2023-05-09T15:53:55.912Z,34.73
2023-05-09T15:57:18.981Z,35.85
2023-05-09T16:00:42.972Z,38.27
2023-05-09T16:04:08.394Z,39.18
2023-05-09T16:07:36.245Z,38.64
2023-05-09T16:11:02.964Z,39.11
2023-05-09T16:14:28.878Z,38.63
2023-05-09T16:17:54.788Z,36.34
2023-05-09T16:21:23.245Z,36.97
2023-05-09T16:24:50.393Z,36.38
2023-05-09T16:28:15.818Z,35.08
2023-05-09T16:31:41.868Z,34.79
2023-05-09T16:35:07.248Z,36.29
2023-05-09T16:38:32.782Z,37.03
2023-05-09T16:42:01.006Z,37.19
2023-05-09T16:45:26.675Z,37.60
2023-05-09T16:48:53.165Z,37.23
2023-05-09T16:52:20.087Z,37.75
2023-05-09T16:55:45.199Z,37.79
2023-05-09T16:59:13.180Z,37.71
2023-05-09T17:02:38.377Z,39.28
2023-05-09T17:06:04.767Z,39.86
2023-05-09T17:09:30.877Z,40.53
2023-05-09T17:12:58.309Z,41.73
2023-05-09T17:16:28.555Z,42.13
2023-05-09T17:19:55.263Z,42.21
2023-05-09T17:23:20.739Z,42.22
2023-05-09T17:26:47.336Z,42.55
2023-05-09T17:30:14.104Z,43.04
2023-05-09T17:33:43.340Z,42.57
2023-05-09T17:37:10.294Z,43.75
2023-05-09T17:40:37.189Z,43.65
2023-05-09T17:44:11.772Z,43.58
2023-05-09T17:47:38.138Z,44.30
2023-05-09T17:51:05.776Z,45.12
2023-05-09T17:54:31.916Z,45.95
2023-05-09T17:57:57.598Z,45.67
2023-05-09T18:01:23.499Z,46.77
2023-05-09T18:04:49.930Z,47.22
2023-05-09T18:08:17.661Z,48.15
2023-05-09T18:11:43.695Z,48.63
2023-05-09T18:15:12.765Z,48.24
2023-05-09T18:18:40.575Z,49.56
2023-05-09T18:22:05.678Z,50.36
2023-05-09T18:25:35.909Z,51.54
2023-05-09T18:29:01.741Z,51.28
2023-05-09T18:32:27.539Z,51.84
2023-05-09T18:35:52.702Z,52.03
2023-05-09T18:39:18.604Z,52.95
2023-05-09T18:42:46.788Z,53.31
2023-05-09T18:46:18.236Z,53.80
2023-05-09T18:49:43.430Z,54.26
2023-05-09T18:53:11.018Z,55.17
2023-05-09T18:56:40.810Z,55.96
2023-05-09T19:00:10.117Z,56.32
2023-05-09T19:03:35.041Z,57.22
2023-05-09T19:07:02.155Z,57.69
2023-05-09T19:10:27.524Z,58.28
2023-05-09T19:13:56.804Z,58.71
2023-05-09T19:17:25.365Z,59.12
2023-05-09T19:20:52.718Z,59.02
2023-05-09T19:24:18.117Z,58.87
2023-05-09T19:27:46.231Z,59.18
2023-05-09T19:31:13.039Z,59.48
2023-05-09T19:34:41.413Z,59.20
2023-05-09T19:38:07.689Z,59.31
2023-05-09T19:41:34.695Z,60.10
2023-05-09T19:45:00.704Z,59.21
2023-05-09T19:48:29.526Z,58.90
2023-05-09T19:52:00.523Z,58.65
2023-05-09T19:55:28.020Z,59.38
2023-05-09T19:58:53.712Z,60.28
2023-05-09T20:02:21.391Z,59.50
2023-05-09T20:09:33.264Z,59.88
2023-05-09T20:13:00.671Z,59.84
2023-05-09T20:16:27.461Z,59.07
2023-05-09T20:19:55.132Z,59.59
2023-05-09T20:23:20.805Z,60.03
2023-05-09T20:26:50.872Z,60.06
2023-05-09T20:30:18.856Z,60.25
2023-05-09T20:33:48.051Z,60.14
2023-05-09T20:37:14.601Z,60.64
2023-05-09T20:40:41.689Z,60.89
2023-05-09T20:44:09.616Z,61.26
2023-05-09T20:47:36.530Z,61.80
2023-05-09T20:51:02.613Z,62.56
2023-05-09T20:54:29.179Z,62.58
2023-05-09T20:57:54.787Z,63.57
2023-05-09T21:01:22.172Z,63.12
2023-05-09T21:04:47.523Z,63.54
2023-05-09T21:08:13.073Z,63.73
2023-05-09T21:11:39.414Z,64.37
2023-05-09T21:15:05.288Z,64.83
2023-05-09T21:18:32.802Z,65.18
2023-05-09T21:21:59.137Z,65.16
2023-05-09T21:25:24.256Z,65.62
2023-05-09T21:28:49.553Z,65.28
2023-05-09T21:32:13.964Z,65.17
2023-05-09T21:35:41.217Z,65.22
2023-05-09T21:39:09.806Z,65.45
2023-05-09T21:42:36.852Z,65.73
2023-05-09T21:46:01.193Z,66.06
2023-05-09T21:49:29.232Z,66.00
2023-05-09T21:52:58.387Z,66.48
2023-05-09T21:56:24.629Z,66.45
2023-05-09T21:59:50.389Z,66.66
2023-05-09T22:03:16.297Z,66.70
2023-05-09T22:06:43.651Z,66.79
2023-05-09T22:10:11.142Z,67.34
2023-05-09T22:13:37.329Z,67.47
2023-05-09T22:17:02.281Z,66.76
2023-05-09T22:20:29.096Z,67.09
2023-05-09T22:23:53.513Z,67.73
2023-05-09T22:27:20.935Z,68.32
2023-05-09T22:30:48.131Z,68.28
2023-05-09T22:34:14.566Z,69.08
2023-05-09T22:37:40.097Z,70.05
2023-05-09T22:41:05.435Z,69.85
2023-05-09T22:44:33.086Z,70.40
2023-05-09T22:47:59.251Z,71.43
2023-05-09T22:51:25.312Z,71.44
2023-05-09T22:54:51.591Z,71.72
2023-05-09T22:58:17.106Z,72.11
2023-05-09T23:01:45.248Z,71.90
2023-05-09T23:05:11.305Z,72.26
2023-05-09T23:08:37.121Z,73.56
2023-05-09T23:12:02.049Z,73.81
2023-05-09T23:15:28.364Z,74.24
2023-05-09T23:18:55.611Z,75.19
2023-05-09T23:22:22.514Z,75.38
2023-05-09T23:25:48.696Z,75.87
2023-05-09T23:29:14.501Z,76.18
2023-05-09T23:32:40.399Z,75.77
2023-05-09T23:36:08.717Z,75.74
2023-05-09T23:39:34.886Z,75.26
2023-05-09T23:43:00.008Z,75.57
2023-05-09T23:46:25.539Z,77.31
2023-05-09T23:49:51.911Z,77.75
2023-05-09T23:53:18.813Z,77.83
2023-05-09T23:56:44.761Z,78.01
